sensor_id;sensor_type;location;lat;lon;timestamp;P1;durP1;ratioP1;P2;durP2;ratioP2
13267;SDS011;6702;47.068;15.458;2022-12-18T00:01:40;21.73;;;16.30;;
13267;SDS011;6702;47.068;15.458;2022-12-18T00:04:43;23.17;;;17.67;;
13267;SDS011;6702;47.068;15.458;2022-12-18T00:07:47;20.53;;;18.30;;
13267;SDS011;6702;47.068;15.458;2022-12-18T00:10:50;20.33;;;18.17;;
13267;SDS011;6702;47.068;15.458;2022-12-18T00:13:54;23.77;;;17.37;;
13267;SDS011;6702;47.068;15.458;2022-12-18T00:17:00;23.90;;;16.23;;
13267;SDS011;6702;47.068;15.458;2022-12-18T00:20:04;20.40;;;16.53;;
13267;SDS011;6702;47.068;15.458;2022-12-18T00:23:08;23.03;;;17.70;;
13267;SDS011;6702;47.068;15.458;2022-12-18T00:26:12;23.20;;;16.90;;
13267;SDS011;6702;47.068;15.458;2022-12-18T00:29:16;25.33;;;16.70;;
13267;SDS011;6702;47.068;15.458;2022-12-18T00:32:20;24.37;;;17.80;;
13267;SDS011;6702;47.068;15.458;2022-12-18T00:35:23;22.17;;;17.13;;
13267;SDS011;6702;47.068;15.458;2022-12-18T00:38:27;22.60;;;15.57;;
13267;SDS011;6702;47.068;15.458;2022-12-18T00:41:30;25.57;;;16.67;;
13267;SDS011;6702;47.068;15.458;2022-12-18T00:44:51;27.40;;;16.70;;
13267;SDS011;6702;47.068;15.458;2022-12-18T00:47:56;22.10;;;16.23;;
13267;SDS011;6702;47.068;15.458;2022-12-18T00:50:59;29.80;;;18.10;;
13267;SDS011;6702;47.068;15.458;2022-12-18T00:54:03;21.20;;;14.97;;
13267;SDS011;6702;47.068;15.458;2022-12-18T00:57:06;18.57;;;14.03;;
13267;SDS011;6702;47.068;15.458;2022-12-18T01:00:10;24.53;;;15.43;;
13267;SDS011;6702;47.068;15.458;2022-12-18T01:03:16;18.57;;;15.77;;
13267;SDS011;6702;47.068;15.458;2022-12-18T01:06:21;21.90;;;13.90;;
13267;SDS011;6702;47.068;15.458;2022-12-18T01:09:24;21.93;;;14.13;;
13267;SDS011;6702;47.068;15.458;2022-12-18T01:12:28;17.80;;;13.70;;
13267;SDS011;6702;47.068;15.458;2022-12-18T01:15:31;18.10;;;14.07;;
13267;SDS011;6702;47.068;15.458;2022-12-18T01:18:36;17.83;;;13.97;;
13267;SDS011;6702;47.068;15.458;2022-12-18T01:21:39;18.27;;;13.93;;
13267;SDS011;6702;47.068;15.458;2022-12-18T01:24:42;17.17;;;12.77;;
13267;SDS011;6702;47.068;15.458;2022-12-18T01:27:45;22.93;;;15.47;;
13267;SDS011;6702;47.068;15.458;2022-12-18T01:30:48;19.70;;;14.37;;
13267;SDS011;6702;47.068;15.458;2022-12-18T01:33:53;19.50;;;15.10;;
13267;SDS011;6702;47.068;15.458;2022-12-18T01:36:56;19.80;;;15.10;;
13267;SDS011;6702;47.068;15.458;2022-12-18T01:40:00;21.33;;;14.60;;
13267;SDS011;6702;47.068;15.458;2022-12-18T01:43:03;18.77;;;14.00;;
13267;SDS011;6702;47.068;15.458;2022-12-18T01:46:06;17.30;;;13.20;;
13267;SDS011;6702;47.068;15.458;2022-12-18T01:49:11;19.80;;;14.80;;
13267;SDS011;6702;47.068;15.458;2022-12-18T01:52:14;22.50;;;14.23;;
13267;SDS011;6702;47.068;15.458;2022-12-18T01:55:20;15.77;;;13.30;;
13267;SDS011;6702;47.068;15.458;2022-12-18T01:58:27;22.13;;;14.33;;
13267;SDS011;6702;47.068;15.458;2022-12-18T02:01:37;18.43;;;14.97;;
13267;SDS011;6702;47.068;15.458;2022-12-18T02:04:42;19.43;;;14.40;;
13267;SDS011;6702;47.068;15.458;2022-12-18T02:07:52;19.00;;;14.20;;
13267;SDS011;6702;47.068;15.458;2022-12-18T02:11:05;17.83;;;13.20;;
13267;SDS011;6702;47.068;15.458;2022-12-18T02:14:17;21.97;;;13.57;;
13267;SDS011;6702;47.068;15.458;2022-12-18T02:17:25;18.57;;;13.27;;
13267;SDS011;6702;47.068;15.458;2022-12-18T02:20:43;14.73;;;11.90;;
13267;SDS011;6702;47.068;15.458;2022-12-18T02:23:51;21.20;;;14.43;;
13267;SDS011;6702;47.068;15.458;2022-12-18T02:27:05;20.80;;;14.30;;
13267;SDS011;6702;47.068;15.458;2022-12-18T02:30:11;19.50;;;13.80;;
13267;SDS011;6702;47.068;15.458;2022-12-18T02:33:16;17.00;;;13.80;;
13267;SDS011;6702;47.068;15.458;2022-12-18T02:36:21;20.27;;;14.37;;
13267;SDS011;6702;47.068;15.458;2022-12-18T02:39:26;17.83;;;12.97;;
13267;SDS011;6702;47.068;15.458;2022-12-18T02:42:33;20.60;;;15.20;;
13267;SDS011;6702;47.068;15.458;2022-12-18T02:45:37;16.30;;;13.37;;
13267;SDS011;6702;47.068;15.458;2022-12-18T02:48:49;15.90;;;12.50;;
13267;SDS011;6702;47.068;15.458;2022-12-18T02:51:59;15.20;;;13.03;;
13267;SDS011;6702;47.068;15.458;2022-12-18T02:55:09;17.23;;;12.87;;
13267;SDS011;6702;47.068;15.458;2022-12-18T02:58:20;20.60;;;14.50;;
13267;SDS011;6702;47.068;15.458;2022-12-18T03:01:30;17.97;;;13.63;;
13267;SDS011;6702;47.068;15.458;2022-12-18T03:04:42;17.57;;;13.20;;
13267;SDS011;6702;47.068;15.458;2022-12-18T03:07:51;24.60;;;14.50;;
13267;SDS011;6702;47.068;15.458;2022-12-18T03:10:59;20.93;;;14.80;;
13267;SDS011;6702;47.068;15.458;2022-12-18T03:14:06;16.43;;;13.13;;
13267;SDS011;6702;47.068;15.458;2022-12-18T03:17:13;17.00;;;12.20;;
13267;SDS011;6702;47.068;15.458;2022-12-18T03:20:20;15.17;;;12.63;;
13267;SDS011;6702;47.068;15.458;2022-12-18T03:23:27;18.53;;;13.30;;
13267;SDS011;6702;47.068;15.458;2022-12-18T03:26:37;12.90;;;11.13;;
13267;SDS011;6702;47.068;15.458;2022-12-18T03:29:46;16.03;;;11.70;;
13267;SDS011;6702;47.068;15.458;2022-12-18T03:32:53;14.10;;;11.13;;
13267;SDS011;6702;47.068;15.458;2022-12-18T03:36:00;15.90;;;10.67;;
13267;SDS011;6702;47.068;15.458;2022-12-18T03:39:04;19.43;;;12.90;;
13267;SDS011;6702;47.068;15.458;2022-12-18T03:42:08;15.10;;;12.47;;
13267;SDS011;6702;47.068;15.458;2022-12-18T03:45:20;17.33;;;11.10;;
13267;SDS011;6702;47.068;15.458;2022-12-18T03:48:27;20.17;;;12.30;;
13267;SDS011;6702;47.068;15.458;2022-12-18T03:51:38;16.27;;;11.80;;
13267;SDS011;6702;47.068;15.458;2022-12-18T03:54:45;19.60;;;12.33;;
13267;SDS011;6702;47.068;15.458;2022-12-18T03:57:48;16.73;;;10.60;;
13267;SDS011;6702;47.068;15.458;2022-12-18T04:00:55;16.20;;;10.20;;
13267;SDS011;6702;47.068;15.458;2022-12-18T04:04:02;13.97;;;10.70;;
13267;SDS011;6702;47.068;15.458;2022-12-18T04:07:07;16.43;;;10.33;;
13267;SDS011;6702;47.068;15.458;2022-12-18T04:10:11;15.80;;;10.47;;
13267;SDS011;6702;47.068;15.458;2022-12-18T04:13:21;10.73;;;9.60;;
13267;SDS011;6702;47.068;15.458;2022-12-18T04:16:26;14.40;;;9.97;;
13267;SDS011;6702;47.068;15.458;2022-12-18T04:19:29;13.00;;;9.73;;
13267;SDS011;6702;47.068;15.458;2022-12-18T04:22:33;14.37;;;11.03;;
13267;SDS011;6702;47.068;15.458;2022-12-18T04:25:36;17.73;;;11.43;;
13267;SDS011;6702;47.068;15.458;2022-12-18T04:28:39;17.40;;;11.07;;
13267;SDS011;6702;47.068;15.458;2022-12-18T04:31:44;15.17;;;10.83;;
13267;SDS011;6702;47.068;15.458;2022-12-18T04:34:47;14.10;;;12.30;;
13267;SDS011;6702;47.068;15.458;2022-12-18T04:37:50;16.90;;;11.60;;
13267;SDS011;6702;47.068;15.458;2022-12-18T04:40:53;15.20;;;11.80;;
13267;SDS011;6702;47.068;15.458;2022-12-18T04:43:56;17.30;;;12.60;;
13267;SDS011;6702;47.068;15.458;2022-12-18T04:47:01;13.43;;;10.33;;
13267;SDS011;6702;47.068;15.458;2022-12-18T04:50:04;11.80;;;10.37;;
13267;SDS011;6702;47.068;15.458;2022-12-18T04:53:08;12.33;;;9.70;;
13267;SDS011;6702;47.068;15.458;2022-12-18T04:56:12;11.80;;;10.53;;
13267;SDS011;6702;47.068;15.458;2022-12-18T04:59:16;13.93;;;11.07;;
13267;SDS011;6702;47.068;15.458;2022-12-18T05:02:20;13.73;;;10.50;;
13267;SDS011;6702;47.068;15.458;2022-12-18T05:05:24;12.23;;;9.23;;
13267;SDS011;6702;47.068;15.458;2022-12-18T05:08:27;12.73;;;9.83;;
13267;SDS011;6702;47.068;15.458;2022-12-18T05:11:30;15.47;;;11.50;;
13267;SDS011;6702;47.068;15.458;2022-12-18T05:14:33;22.27;;;15.03;;
13267;SDS011;6702;47.068;15.458;2022-12-18T05:17:38;19.10;;;12.30;;
13267;SDS011;6702;47.068;15.458;2022-12-18T05:20:41;16.97;;;12.27;;
13267;SDS011;6702;47.068;15.458;2022-12-18T05:23:44;13.60;;;10.87;;
13267;SDS011;6702;47.068;15.458;2022-12-18T05:26:47;12.20;;;9.97;;
13267;SDS011;6702;47.068;15.458;2022-12-18T05:29:50;17.37;;;13.40;;
13267;SDS011;6702;47.068;15.458;2022-12-18T05:32:55;12.50;;;10.20;;
13267;SDS011;6702;47.068;15.458;2022-12-18T05:35:58;12.63;;;11.10;;
13267;SDS011;6702;47.068;15.458;2022-12-18T05:39:02;14.70;;;11.53;;
13267;SDS011;6702;47.068;15.458;2022-12-18T05:42:06;14.13;;;11.33;;
13267;SDS011;6702;47.068;15.458;2022-12-18T05:45:09;15.37;;;12.40;;
13267;SDS011;6702;47.068;15.458;2022-12-18T05:48:14;13.47;;;10.77;;
13267;SDS011;6702;47.068;15.458;2022-12-18T05:51:19;16.80;;;12.67;;
13267;SDS011;6702;47.068;15.458;2022-12-18T05:54:23;18.90;;;12.57;;
13267;SDS011;6702;47.068;15.458;2022-12-18T05:57:26;17.43;;;13.37;;
13267;SDS011;6702;47.068;15.458;2022-12-18T06:00:29;14.37;;;12.30;;
13267;SDS011;6702;47.068;15.458;2022-12-18T06:03:34;22.37;;;13.10;;
13267;SDS011;6702;47.068;15.458;2022-12-18T06:06:38;17.00;;;12.30;;
13267;SDS011;6702;47.068;15.458;2022-12-18T06:09:41;16.77;;;11.57;;
13267;SDS011;6702;47.068;15.458;2022-12-18T06:12:44;15.37;;;11.37;;
13267;SDS011;6702;47.068;15.458;2022-12-18T06:15:48;17.07;;;13.53;;
13267;SDS011;6702;47.068;15.458;2022-12-18T06:18:52;15.90;;;10.50;;
13267;SDS011;6702;47.068;15.458;2022-12-18T06:21:55;13.40;;;11.50;;
13267;SDS011;6702;47.068;15.458;2022-12-18T06:25:00;15.20;;;11.80;;
13267;SDS011;6702;47.068;15.458;2022-12-18T06:28:03;12.17;;;9.80;;
13267;SDS011;6702;47.068;15.458;2022-12-18T06:31:06;14.00;;;11.10;;
13267;SDS011;6702;47.068;15.458;2022-12-18T06:34:12;17.63;;;13.30;;
13267;SDS011;6702;47.068;15.458;2022-12-18T06:37:15;17.33;;;12.97;;
13267;SDS011;6702;47.068;15.458;2022-12-18T06:40:18;16.47;;;12.97;;
13267;SDS011;6702;47.068;15.458;2022-12-18T06:43:21;14.50;;;10.63;;
13267;SDS011;6702;47.068;15.458;2022-12-18T06:46:26;16.07;;;11.30;;
13267;SDS011;6702;47.068;15.458;2022-12-18T06:49:30;16.17;;;10.47;;
13267;SDS011;6702;47.068;15.458;2022-12-18T06:52:33;15.60;;;11.50;;
13267;SDS011;6702;47.068;15.458;2022-12-18T06:55:38;16.23;;;10.40;;
13267;SDS011;6702;47.068;15.458;2022-12-18T06:58:41;11.53;;;8.60;;
13267;SDS011;6702;47.068;15.458;2022-12-18T07:01:45;16.87;;;11.57;;
13267;SDS011;6702;47.068;15.458;2022-12-18T07:04:49;15.23;;;10.60;;
13267;SDS011;6702;47.068;15.458;2022-12-18T07:07:52;15.53;;;11.10;;
13267;SDS011;6702;47.068;15.458;2022-12-18T07:10:55;12.67;;;10.03;;
13267;SDS011;6702;47.068;15.458;2022-12-18T07:13:59;16.67;;;10.57;;
13267;SDS011;6702;47.068;15.458;2022-12-18T07:17:02;12.63;;;9.20;;
13267;SDS011;6702;47.068;15.458;2022-12-18T07:20:09;12.17;;;9.40;;
13267;SDS011;6702;47.068;15.458;2022-12-18T07:23:12;10.10;;;8.47;;
13267;SDS011;6702;47.068;15.458;2022-12-18T07:26:16;13.83;;;9.10;;
13267;SDS011;6702;47.068;15.458;2022-12-18T07:29:20;12.33;;;9.10;;
13267;SDS011;6702;47.068;15.458;2022-12-18T07:32:23;11.40;;;8.63;;
13267;SDS011;6702;47.068;15.458;2022-12-18T07:35:28;14.80;;;10.63;;
13267;SDS011;6702;47.068;15.458;2022-12-18T07:38:31;11.80;;;9.07;;
13267;SDS011;6702;47.068;15.458;2022-12-18T07:41:35;14.10;;;9.90;;
13267;SDS011;6702;47.068;15.458;2022-12-18T07:44:44;11.40;;;9.37;;
13267;SDS011;6702;47.068;15.458;2022-12-18T07:47:47;12.53;;;10.03;;
13267;SDS011;6702;47.068;15.458;2022-12-18T07:50:51;12.93;;;9.53;;
13267;SDS011;6702;47.068;15.458;2022-12-18T07:53:55;12.90;;;9.50;;
13267;SDS011;6702;47.068;15.458;2022-12-18T07:56:59;11.90;;;9.10;;
13267;SDS011;6702;47.068;15.458;2022-12-18T08:00:02;13.53;;;9.77;;
13267;SDS011;6702;47.068;15.458;2022-12-18T08:03:06;11.57;;;9.70;;
13267;SDS011;6702;47.068;15.458;2022-12-18T08:06:10;15.33;;;9.90;;
13267;SDS011;6702;47.068;15.458;2022-12-18T08:09:13;11.90;;;9.00;;
13267;SDS011;6702;47.068;15.458;2022-12-18T08:12:17;11.77;;;9.87;;
13267;SDS011;6702;47.068;15.458;2022-12-18T08:15:20;13.93;;;10.60;;
13267;SDS011;6702;47.068;15.458;2022-12-18T08:18:23;17.60;;;11.10;;
13267;SDS011;6702;47.068;15.458;2022-12-18T08:21:28;12.87;;;9.87;;
13267;SDS011;6702;47.068;15.458;2022-12-18T08:24:33;13.90;;;9.90;;
13267;SDS011;6702;47.068;15.458;2022-12-18T08:27:36;12.00;;;9.40;;
13267;SDS011;6702;47.068;15.458;2022-12-18T08:30:39;11.40;;;8.37;;
13267;SDS011;6702;47.068;15.458;2022-12-18T08:33:43;16.23;;;11.80;;
13267;SDS011;6702;47.068;15.458;2022-12-18T08:36:48;13.30;;;10.37;;
13267;SDS011;6702;47.068;15.458;2022-12-18T08:39:51;10.10;;;8.20;;
13267;SDS011;6702;47.068;15.458;2022-12-18T08:42:55;9.90;;;8.57;;
13267;SDS011;6702;47.068;15.458;2022-12-18T08:46:15;9.00;;;8.10;;
13267;SDS011;6702;47.068;15.458;2022-12-18T08:49:19;9.33;;;8.33;;
13267;SDS011;6702;47.068;15.458;2022-12-18T08:52:23;9.90;;;7.47;;
13267;SDS011;6702;47.068;15.458;2022-12-18T08:55:26;10.70;;;8.50;;
13267;SDS011;6702;47.068;15.458;2022-12-18T08:58:30;8.80;;;8.00;;
13267;SDS011;6702;47.068;15.458;2022-12-18T09:01:33;8.67;;;7.70;;
13267;SDS011;6702;47.068;15.458;2022-12-18T09:04:36;9.73;;;7.07;;
13267;SDS011;6702;47.068;15.458;2022-12-18T09:07:43;10.37;;;8.97;;
13267;SDS011;6702;47.068;15.458;2022-12-18T09:10:47;12.63;;;9.77;;
13267;SDS011;6702;47.068;15.458;2022-12-18T09:13:52;9.10;;;7.87;;
13267;SDS011;6702;47.068;15.458;2022-12-18T09:16:56;12.90;;;9.20;;
13267;SDS011;6702;47.068;15.458;2022-12-18T09:19:59;11.60;;;9.13;;
13267;SDS011;6702;47.068;15.458;2022-12-18T09:23:04;12.13;;;9.93;;
13267;SDS011;6702;47.068;15.458;2022-12-18T09:26:07;12.13;;;9.60;;
13267;SDS011;6702;47.068;15.458;2022-12-18T09:29:10;10.70;;;9.43;;
13267;SDS011;6702;47.068;15.458;2022-12-18T09:32:15;12.53;;;9.40;;
13267;SDS011;6702;47.068;15.458;2022-12-18T09:35:22;13.13;;;9.60;;
13267;SDS011;6702;47.068;15.458;2022-12-18T09:38:27;13.10;;;11.03;;
13267;SDS011;6702;47.068;15.458;2022-12-18T09:41:36;12.70;;;10.33;;
13267;SDS011;6702;47.068;15.458;2022-12-18T09:44:44;16.17;;;9.50;;
13267;SDS011;6702;47.068;15.458;2022-12-18T09:47:52;10.50;;;8.70;;
13267;SDS011;6702;47.068;15.458;2022-12-18T09:50:57;10.93;;;9.83;;
13267;SDS011;6702;47.068;15.458;2022-12-18T09:54:06;13.27;;;10.47;;
13267;SDS011;6702;47.068;15.458;2022-12-18T09:57:15;16.07;;;10.47;;
13267;SDS011;6702;47.068;15.458;2022-12-18T10:00:22;12.50;;;10.10;;
13267;SDS011;6702;47.068;15.458;2022-12-18T10:03:28;18.17;;;11.67;;
13267;SDS011;6702;47.068;15.458;2022-12-18T10:06:32;18.70;;;12.80;;
13267;SDS011;6702;47.068;15.458;2022-12-18T10:09:44;16.57;;;12.40;;
13267;SDS011;6702;47.068;15.458;2022-12-18T10:12:56;18.67;;;12.50;;
13267;SDS011;6702;47.068;15.458;2022-12-18T10:16:08;18.40;;;15.03;;
13267;SDS011;6702;47.068;15.458;2022-12-18T10:19:32;19.73;;;12.80;;
13267;SDS011;6702;47.068;15.458;2022-12-18T10:22:43;19.40;;;14.70;;
13267;SDS011;6702;47.068;15.458;2022-12-18T10:25:59;20.30;;;13.43;;
13267;SDS011;6702;47.068;15.458;2022-12-18T10:29:07;16.07;;;13.27;;
13267;SDS011;6702;47.068;15.458;2022-12-18T10:32:15;21.43;;;13.73;;
13267;SDS011;6702;47.068;15.458;2022-12-18T10:35:21;18.73;;;14.30;;
13267;SDS011;6702;47.068;15.458;2022-12-18T10:38:27;18.67;;;14.17;;
13267;SDS011;6702;47.068;15.458;2022-12-18T10:41:32;22.13;;;16.07;;
13267;SDS011;6702;47.068;15.458;2022-12-18T10:44:35;24.10;;;17.80;;
13267;SDS011;6702;47.068;15.458;2022-12-18T10:47:41;24.07;;;16.63;;
13267;SDS011;6702;47.068;15.458;2022-12-18T10:50:49;28.97;;;21.07;;
13267;SDS011;6702;47.068;15.458;2022-12-18T10:54:14;25.53;;;18.20;;
13267;SDS011;6702;47.068;15.458;2022-12-18T10:57:31;34.50;;;22.53;;
13267;SDS011;6702;47.068;15.458;2022-12-18T11:00:37;56.00;;;31.30;;
13267;SDS011;6702;47.068;15.458;2022-12-18T11:03:41;44.23;;;27.20;;
13267;SDS011;6702;47.068;15.458;2022-12-18T11:06:55;94.70;;;45.87;;
13267;SDS011;6702;47.068;15.458;2022-12-18T11:10:01;58.77;;;34.33;;
13267;SDS011;6702;47.068;15.458;2022-12-18T11:13:15;51.33;;;30.67;;
13267;SDS011;6702;47.068;15.458;2022-12-18T11:16:21;66.10;;;35.40;;
13267;SDS011;6702;47.068;15.458;2022-12-18T11:19:30;59.23;;;32.50;;
13267;SDS011;6702;47.068;15.458;2022-12-18T11:22:36;90.60;;;41.70;;
13267;SDS011;6702;47.068;15.458;2022-12-18T11:25:40;61.63;;;28.27;;
13267;SDS011;6702;47.068;15.458;2022-12-18T11:29:08;36.70;;;24.33;;
13267;SDS011;6702;47.068;15.458;2022-12-18T11:32:18;31.27;;;19.43;;
13267;SDS011;6702;47.068;15.458;2022-12-18T11:35:37;29.67;;;20.17;;
13267;SDS011;6702;47.068;15.458;2022-12-18T11:38:44;30.20;;;22.77;;
13267;SDS011;6702;47.068;15.458;2022-12-18T11:41:52;29.00;;;19.90;;
13267;SDS011;6702;47.068;15.458;2022-12-18T11:45:29;30.60;;;20.17;;
13267;SDS011;6702;47.068;15.458;2022-12-18T11:48:38;30.33;;;20.10;;
13267;SDS011;6702;47.068;15.458;2022-12-18T11:51:47;31.37;;;22.50;;
13267;SDS011;6702;47.068;15.458;2022-12-18T11:54:54;32.10;;;20.60;;
13267;SDS011;6702;47.068;15.458;2022-12-18T11:58:03;32.13;;;22.30;;
13267;SDS011;6702;47.068;15.458;2022-12-18T12:01:21;30.07;;;20.50;;
13267;SDS011;6702;47.068;15.458;2022-12-18T12:04:49;37.03;;;21.00;;
13267;SDS011;6702;47.068;15.458;2022-12-18T12:08:08;27.57;;;19.50;;
13267;SDS011;6702;47.068;15.458;2022-12-18T12:11:19;30.67;;;20.37;;
13267;SDS011;6702;47.068;15.458;2022-12-18T12:14:32;30.67;;;19.27;;
13267;SDS011;6702;47.068;15.458;2022-12-18T12:17:45;29.77;;;21.80;;
13267;SDS011;6702;47.068;15.458;2022-12-18T12:20:57;31.57;;;20.83;;
13267;SDS011;6702;47.068;15.458;2022-12-18T12:24:13;29.10;;;20.40;;
13267;SDS011;6702;47.068;15.458;2022-12-18T12:27:30;27.80;;;19.40;;
13267;SDS011;6702;47.068;15.458;2022-12-18T12:30:43;30.40;;;20.07;;
13267;SDS011;6702;47.068;15.458;2022-12-18T12:33:59;28.93;;;19.90;;
13267;SDS011;6702;47.068;15.458;2022-12-18T12:37:14;28.20;;;20.47;;
13267;SDS011;6702;47.068;15.458;2022-12-18T12:40:27;28.23;;;18.77;;
13267;SDS011;6702;47.068;15.458;2022-12-18T12:43:53;33.67;;;21.93;;
13267;SDS011;6702;47.068;15.458;2022-12-18T12:47:00;30.90;;;19.67;;
13267;SDS011;6702;47.068;15.458;2022-12-18T12:50:13;32.97;;;19.83;;
13267;SDS011;6702;47.068;15.458;2022-12-18T12:53:21;32.90;;;20.97;;
13267;SDS011;6702;47.068;15.458;2022-12-18T12:56:32;35.50;;;21.53;;
13267;SDS011;6702;47.068;15.458;2022-12-18T12:59:45;37.97;;;23.13;;
13267;SDS011;6702;47.068;15.458;2022-12-18T13:02:55;33.33;;;22.83;;
13267;SDS011;6702;47.068;15.458;2022-12-18T13:06:09;27.83;;;20.23;;
13267;SDS011;6702;47.068;15.458;2022-12-18T13:09:18;29.43;;;20.47;;
13267;SDS011;6702;47.068;15.458;2022-12-18T13:12:23;27.23;;;19.20;;
13267;SDS011;6702;47.068;15.458;2022-12-18T13:15:41;32.93;;;20.10;;
13267;SDS011;6702;47.068;15.458;2022-12-18T13:18:50;27.83;;;19.63;;
13267;SDS011;6702;47.068;15.458;2022-12-18T13:21:57;29.03;;;18.67;;
13267;SDS011;6702;47.068;15.458;2022-12-18T13:25:00;32.90;;;20.10;;
13267;SDS011;6702;47.068;15.458;2022-12-18T13:28:08;33.07;;;20.40;;
13267;SDS011;6702;47.068;15.458;2022-12-18T13:31:15;32.67;;;19.43;;
13267;SDS011;6702;47.068;15.458;2022-12-18T13:38:55;34.03;;;22.07;;
13267;SDS011;6702;47.068;15.458;2022-12-18T13:46:24;37.10;;;22.30;;
13267;SDS011;6702;47.068;15.458;2022-12-18T13:49:32;32.93;;;21.00;;
13267;SDS011;6702;47.068;15.458;2022-12-18T13:52:41;33.93;;;20.73;;
13267;SDS011;6702;47.068;15.458;2022-12-18T13:55:48;35.97;;;22.07;;
13267;SDS011;6702;47.068;15.458;2022-12-18T14:02:20;33.87;;;22.63;;
13267;SDS011;6702;47.068;15.458;2022-12-18T14:05:26;40.10;;;24.30;;
13267;SDS011;6702;47.068;15.458;2022-12-18T14:08:36;33.43;;;21.33;;
13267;SDS011;6702;47.068;15.458;2022-12-18T14:11:47;39.10;;;22.10;;
13267;SDS011;6702;47.068;15.458;2022-12-18T14:14:51;40.90;;;23.13;;
13267;SDS011;6702;47.068;15.458;2022-12-18T14:17:57;33.57;;;21.20;;
13267;SDS011;6702;47.068;15.458;2022-12-18T14:21:02;46.47;;;28.80;;
13267;SDS011;6702;47.068;15.458;2022-12-18T14:24:12;45.23;;;26.33;;
13267;SDS011;6702;47.068;15.458;2022-12-18T14:27:23;37.13;;;21.40;;
13267;SDS011;6702;47.068;15.458;2022-12-18T14:30:28;44.43;;;26.70;;
13267;SDS011;6702;47.068;15.458;2022-12-18T14:33:33;38.63;;;24.20;;
13267;SDS011;6702;47.068;15.458;2022-12-18T14:36:37;38.73;;;24.20;;
13267;SDS011;6702;47.068;15.458;2022-12-18T14:39:51;40.57;;;25.77;;
13267;SDS011;6702;47.068;15.458;2022-12-18T14:42:57;42.53;;;24.67;;
13267;SDS011;6702;47.068;15.458;2022-12-18T14:46:00;40.10;;;23.97;;
13267;SDS011;6702;47.068;15.458;2022-12-18T14:49:05;46.13;;;25.00;;
13267;SDS011;6702;47.068;15.458;2022-12-18T14:52:25;37.13;;;22.13;;
13267;SDS011;6702;47.068;15.458;2022-12-18T14:55:33;55.13;;;34.97;;
13267;SDS011;6702;47.068;15.458;2022-12-18T14:58:38;43.80;;;27.77;;
13267;SDS011;6702;47.068;15.458;2022-12-18T15:01:47;35.53;;;22.07;;
13267;SDS011;6702;47.068;15.458;2022-12-18T15:05:00;37.47;;;22.50;;
13267;SDS011;6702;47.068;15.458;2022-12-18T15:08:29;40.50;;;25.17;;
13267;SDS011;6702;47.068;15.458;2022-12-18T15:11:44;35.70;;;21.30;;
13267;SDS011;6702;47.068;15.458;2022-12-18T15:15:00;42.37;;;21.93;;
13267;SDS011;6702;47.068;15.458;2022-12-18T15:18:05;32.97;;;21.33;;
13267;SDS011;6702;47.068;15.458;2022-12-18T15:21:17;34.80;;;24.13;;
13267;SDS011;6702;47.068;15.458;2022-12-18T15:24:24;31.87;;;21.50;;
13267;SDS011;6702;47.068;15.458;2022-12-18T15:27:33;38.80;;;22.73;;
13267;SDS011;6702;47.068;15.458;2022-12-18T15:30:40;40.40;;;23.57;;
13267;SDS011;6702;47.068;15.458;2022-12-18T15:34:12;42.43;;;22.70;;
13267;SDS011;6702;47.068;15.458;2022-12-18T15:37:21;54.80;;;30.17;;
13267;SDS011;6702;47.068;15.458;2022-12-18T15:40:26;46.87;;;28.17;;
13267;SDS011;6702;47.068;15.458;2022-12-18T15:43:31;53.37;;;29.73;;
13267;SDS011;6702;47.068;15.458;2022-12-18T15:46:40;40.43;;;22.43;;
13267;SDS011;6702;47.068;15.458;2022-12-18T15:49:44;36.47;;;21.40;;
13267;SDS011;6702;47.068;15.458;2022-12-18T15:52:49;33.43;;;20.13;;
13267;SDS011;6702;47.068;15.458;2022-12-18T15:55:57;32.17;;;20.83;;
13267;SDS011;6702;47.068;15.458;2022-12-18T15:59:20;35.23;;;22.57;;
13267;SDS011;6702;47.068;15.458;2022-12-18T16:02:27;36.63;;;20.33;;
13267;SDS011;6702;47.068;15.458;2022-12-18T16:05:32;32.77;;;18.53;;
13267;SDS011;6702;47.068;15.458;2022-12-18T16:08:36;36.43;;;21.57;;
13267;SDS011;6702;47.068;15.458;2022-12-18T16:11:42;38.00;;;22.27;;
13267;SDS011;6702;47.068;15.458;2022-12-18T16:14:49;34.47;;;20.83;;
13267;SDS011;6702;47.068;15.458;2022-12-18T16:17:58;34.77;;;21.27;;
13267;SDS011;6702;47.068;15.458;2022-12-18T16:21:02;37.50;;;20.60;;
13267;SDS011;6702;47.068;15.458;2022-12-18T16:24:09;32.90;;;21.70;;
13267;SDS011;6702;47.068;15.458;2022-12-18T16:27:19;33.53;;;20.73;;
13267;SDS011;6702;47.068;15.458;2022-12-18T16:30:25;38.90;;;20.90;;
13267;SDS011;6702;47.068;15.458;2022-12-18T16:33:40;35.53;;;20.90;;
13267;SDS011;6702;47.068;15.458;2022-12-18T16:36:45;32.70;;;21.07;;
13267;SDS011;6702;47.068;15.458;2022-12-18T16:39:49;35.17;;;22.60;;
13267;SDS011;6702;47.068;15.458;2022-12-18T16:42:55;37.70;;;21.73;;
13267;SDS011;6702;47.068;15.458;2022-12-18T16:45:59;38.20;;;24.10;;
13267;SDS011;6702;47.068;15.458;2022-12-18T16:49:06;32.43;;;22.13;;
13267;SDS011;6702;47.068;15.458;2022-12-18T16:52:11;34.73;;;22.03;;
13267;SDS011;6702;47.068;15.458;2022-12-18T16:55:16;33.60;;;22.37;;
13267;SDS011;6702;47.068;15.458;2022-12-18T16:58:21;35.00;;;22.30;;
13267;SDS011;6702;47.068;15.458;2022-12-18T17:01:27;39.93;;;22.47;;
13267;SDS011;6702;47.068;15.458;2022-12-18T17:04:34;30.10;;;18.57;;
13267;SDS011;6702;47.068;15.458;2022-12-18T17:07:39;35.73;;;22.50;;
13267;SDS011;6702;47.068;15.458;2022-12-18T17:10:44;36.00;;;21.53;;
13267;SDS011;6702;47.068;15.458;2022-12-18T17:13:49;34.10;;;21.03;;
13267;SDS011;6702;47.068;15.458;2022-12-18T17:16:54;33.30;;;23.40;;
13267;SDS011;6702;47.068;15.458;2022-12-18T17:20:24;33.13;;;22.80;;
13267;SDS011;6702;47.068;15.458;2022-12-18T17:23:29;31.33;;;20.53;;
13267;SDS011;6702;47.068;15.458;2022-12-18T17:26:36;33.97;;;20.93;;
13267;SDS011;6702;47.068;15.458;2022-12-18T17:29:44;34.27;;;20.77;;
13267;SDS011;6702;47.068;15.458;2022-12-18T17:32:49;41.47;;;23.10;;
13267;SDS011;6702;47.068;15.458;2022-12-18T17:35:56;34.40;;;21.20;;
13267;SDS011;6702;47.068;15.458;2022-12-18T17:39:01;35.97;;;21.93;;
13267;SDS011;6702;47.068;15.458;2022-12-18T17:42:06;31.60;;;21.87;;
13267;SDS011;6702;47.068;15.458;2022-12-18T17:45:16;36.93;;;20.17;;
13267;SDS011;6702;47.068;15.458;2022-12-18T17:48:22;35.87;;;21.23;;
13267;SDS011;6702;47.068;15.458;2022-12-18T17:51:28;41.77;;;24.00;;
13267;SDS011;6702;47.068;15.458;2022-12-18T17:54:34;35.93;;;21.90;;
13267;SDS011;6702;47.068;15.458;2022-12-18T17:57:40;35.50;;;22.07;;
13267;SDS011;6702;47.068;15.458;2022-12-18T18:00:44;33.30;;;21.70;;
13267;SDS011;6702;47.068;15.458;2022-12-18T18:03:50;33.73;;;21.03;;
13267;SDS011;6702;47.068;15.458;2022-12-18T18:06:57;33.97;;;21.77;;
13267;SDS011;6702;47.068;15.458;2022-12-18T18:10:02;34.50;;;21.70;;
13267;SDS011;6702;47.068;15.458;2022-12-18T18:13:12;35.87;;;24.17;;
13267;SDS011;6702;47.068;15.458;2022-12-18T18:16:47;33.50;;;21.33;;
13267;SDS011;6702;47.068;15.458;2022-12-18T18:20:01;39.60;;;22.80;;
13267;SDS011;6702;47.068;15.458;2022-12-18T18:23:07;34.30;;;22.23;;
13267;SDS011;6702;47.068;15.458;2022-12-18T18:26:12;32.27;;;21.53;;
13267;SDS011;6702;47.068;15.458;2022-12-18T18:29:29;33.37;;;22.17;;